sensor_id;sensor_type;location;lat;lon;timestamp;temperature;humidity
29713;DHT22;16623;53.632;10.016;2022-10-18T08:40:42;14.40;99.90
29713;DHT22;16623;53.632;10.016;2022-10-18T08:43:33;14.50;99.90
29713;DHT22;16623;53.632;10.016;2022-10-18T08:45:57;14.40;99.90
29713;DHT22;16623;53.632;10.016;2022-10-18T08:48:42;14.40;99.90
29713;DHT22;16623;53.632;10.016;2022-10-18T08:51:29;14.40;99.90
29713;DHT22;16623;53.632;10.016;2022-10-18T08:56:21;14.50;99.90
29713;DHT22;16623;53.632;10.016;2022-10-18T08:58:49;14.50;99.90
29713;DHT22;16623;53.632;10.016;2022-10-18T09:01:30;14.50;99.90
29713;DHT22;16623;53.632;10.016;2022-10-18T09:07:23;14.50;99.90
29713;DHT22;16623;53.632;10.016;2022-10-18T09:16:02;14.40;99.90
29713;DHT22;16623;53.632;10.016;2022-10-18T09:21:19;14.60;99.90
29713;DHT22;16623;53.632;10.016;2022-10-18T09:26:18;14.60;99.90
29713;DHT22;16623;53.632;10.016;2022-10-18T09:28:55;14.70;99.90
29713;DHT22;16623;53.632;10.016;2022-10-18T09:32:03;14.70;99.90
29713;DHT22;16623;53.632;10.016;2022-10-18T09:34:45;14.80;99.90
29713;DHT22;16623;53.632;10.016;2022-10-18T09:37:17;14.80;99.90
29713;DHT22;16623;53.632;10.016;2022-10-18T09:39:44;14.90;99.90
29713;DHT22;16623;53.632;10.016;2022-10-18T09:42:20;15.00;99.90
29713;DHT22;16623;53.632;10.016;2022-10-18T09:44:56;15.10;99.90
29713;DHT22;16623;53.632;10.016;2022-10-18T09:47:44;15.20;99.90
29713;DHT22;16623;53.632;10.016;2022-10-18T09:50:40;15.30;99.90
29713;DHT22;16623;53.632;10.016;2022-10-18T09:53:16;15.40;99.90
29713;DHT22;16623;53.632;10.016;2022-10-18T09:56:08;15.50;99.90
29713;DHT22;16623;53.632;10.016;2022-10-18T09:58:43;15.60;99.90
29713;DHT22;16623;53.632;10.016;2022-10-18T10:01:12;15.60;99.90
29713;DHT22;16623;53.632;10.016;2022-10-18T10:03:38;15.60;99.90
29713;DHT22;16623;53.632;10.016;2022-10-18T10:08:40;15.90;99.90
29713;DHT22;16623;53.632;10.016;2022-10-18T10:11:32;16.00;99.90
29713;DHT22;16623;53.632;10.016;2022-10-18T10:14:11;16.00;99.90
29713;DHT22;16623;53.632;10.016;2022-10-18T10:19:31;16.00;99.90
29713;DHT22;16623;53.632;10.016;2022-10-18T10:22:08;16.00;99.90
29713;DHT22;16623;53.632;10.016;2022-10-18T10:24:42;16.10;99.90
29713;DHT22;16623;53.632;10.016;2022-10-18T10:27:43;16.20;99.90
29713;DHT22;16623;53.632;10.016;2022-10-18T10:30:25;16.20;99.90
29713;DHT22;16623;53.632;10.016;2022-10-18T10:32:52;16.30;99.90
29713;DHT22;16623;53.632;10.016;2022-10-18T10:35:33;16.40;99.90
29713;DHT22;16623;53.632;10.016;2022-10-18T10:38:00;16.20;99.90
29713;DHT22;16623;53.632;10.016;2022-10-18T10:40:30;16.20;99.90
29713;DHT22;16623;53.632;10.016;2022-10-18T10:43:01;16.30;99.90
29713;DHT22;16623;53.632;10.016;2022-10-18T10:48:38;16.20;99.90
29713;DHT22;16623;53.632;10.016;2022-10-18T10:51:09;16.10;99.90
29713;DHT22;16623;53.632;10.016;2022-10-18T10:56:05;15.90;99.90
29713;DHT22;16623;53.632;10.016;2022-10-18T10:58:37;15.90;99.90
29713;DHT22;16623;53.632;10.016;2022-10-18T11:01:18;15.90;99.90
29713;DHT22;16623;53.632;10.016;2022-10-18T11:03:49;16.00;99.90
29713;DHT22;16623;53.632;10.016;2022-10-18T11:08:58;16.30;99.90
29713;DHT22;16623;53.632;10.016;2022-10-18T11:11:38;16.50;99.90
29713;DHT22;16623;53.632;10.016;2022-10-18T11:14:25;16.60;99.90
29713;DHT22;16623;53.632;10.016;2022-10-18T11:17:20;16.70;99.90
29713;DHT22;16623;53.632;10.016;2022-10-18T11:22:31;16.90;99.90
29713;DHT22;16623;53.632;10.016;2022-10-18T11:24:57;16.80;99.90
29713;DHT22;16623;53.632;10.016;2022-10-18T11:27:35;16.60;99.90
29713;DHT22;16623;53.632;10.016;2022-10-18T11:33:23;16.30;99.90
29713;DHT22;16623;53.632;10.016;2022-10-18T11:36:17;16.20;99.90
29713;DHT22;16623;53.632;10.016;2022-10-18T11:41:30;16.20;99.90
29713;DHT22;16623;53.632;10.016;2022-10-18T11:44:01;16.20;99.90
29713;DHT22;16623;53.632;10.016;2022-10-18T11:46:49;16.30;99.90
29713;DHT22;16623;53.632;10.016;2022-10-18T11:57:37;16.40;99.90
29713;DHT22;16623;53.632;10.016;2022-10-18T12:03:31;16.40;99.90
29713;DHT22;16623;53.632;10.016;2022-10-18T12:06:02;16.50;99.90
29713;DHT22;16623;53.632;10.016;2022-10-18T12:08:43;16.70;99.90
29713;DHT22;16623;53.632;10.016;2022-10-18T12:11:16;16.80;99.90
29713;DHT22;16623;53.632;10.016;2022-10-18T12:13:56;16.80;99.90
29713;DHT22;16623;53.632;10.016;2022-10-18T12:16:27;16.80;99.90
29713;DHT22;16623;53.632;10.016;2022-10-18T12:18:58;16.60;99.90
29713;DHT22;16623;53.632;10.016;2022-10-18T12:21:25;16.50;99.90
29713;DHT22;16623;53.632;10.016;2022-10-18T12:24:00;16.30;99.90
29713;DHT22;16623;53.632;10.016;2022-10-18T12:26:27;16.10;99.90
29713;DHT22;16623;53.632;10.016;2022-10-18T12:29:25;16.10;99.90
29713;DHT22;16623;53.632;10.016;2022-10-18T12:31:54;16.00;99.90
29713;DHT22;16623;53.632;10.016;2022-10-18T12:39:31;16.20;99.90
29713;DHT22;16623;53.632;10.016;2022-10-18T12:41:57;16.40;99.90
29713;DHT22;16623;53.632;10.016;2022-10-18T12:44:31;16.50;99.90
29713;DHT22;16623;53.632;10.016;2022-10-18T12:47:02;16.60;99.90
29713;DHT22;16623;53.632;10.016;2022-10-18T12:49:33;16.80;99.90
29713;DHT22;16623;53.632;10.016;2022-10-18T12:52:20;16.90;99.90
29713;DHT22;16623;53.632;10.016;2022-10-18T12:55:27;16.90;99.90
29713;DHT22;16623;53.632;10.016;2022-10-18T13:14:06;16.90;99.90
29713;DHT22;16623;53.632;10.016;2022-10-18T13:16:59;17.00;99.90
29713;DHT22;16623;53.632;10.016;2022-10-18T13:22:24;17.00;99.90
29713;DHT22;16623;53.632;10.016;2022-10-18T13:27:31;16.90;99.90
29713;DHT22;16623;53.632;10.016;2022-10-18T13:30:25;16.80;99.90
29713;DHT22;16623;53.632;10.016;2022-10-18T13:33:32;16.70;99.90
29713;DHT22;16623;53.632;10.016;2022-10-18T13:41:05;16.20;99.90
29713;DHT22;16623;53.632;10.016;2022-10-18T13:46:17;15.90;99.90
29713;DHT22;16623;53.632;10.016;2022-10-18T13:48:52;15.80;99.90
29713;DHT22;16623;53.632;10.016;2022-10-18T14:09:00;15.80;99.90
29713;DHT22;16623;53.632;10.016;2022-10-18T14:11:43;15.70;99.90
29713;DHT22;16623;53.632;10.016;2022-10-18T14:17:37;15.60;99.90
29713;DHT22;16623;53.632;10.016;2022-10-18T14:20:14;15.70;99.90
29713;DHT22;16623;53.632;10.016;2022-10-18T14:23:04;15.80;99.90
29713;DHT22;16623;53.632;10.016;2022-10-18T14:25:34;15.70;99.90
29713;DHT22;16623;53.632;10.016;2022-10-18T14:28:16;15.70;99.90
29713;DHT22;16623;53.632;10.016;2022-10-18T14:30:59;15.80;99.90
29713;DHT22;16623;53.632;10.016;2022-10-18T14:36:12;15.70;99.90
29713;DHT22;16623;53.632;10.016;2022-10-18T14:38:59;15.60;99.90
29713;DHT22;16623;53.632;10.016;2022-10-18T14:41:26;15.60;99.90
29713;DHT22;16623;53.632;10.016;2022-10-18T14:44:15;15.60;99.90
29713;DHT22;16623;53.632;10.016;2022-10-18T14:47:02;15.50;99.90
29713;DHT22;16623;53.632;10.016;2022-10-18T14:49:28;15.50;99.90
29713;DHT22;16623;53.632;10.016;2022-10-18T14:51:56;15.40;99.90
29713;DHT22;16623;53.632;10.016;2022-10-18T14:54:24;15.50;99.90
29713;DHT22;16623;53.632;10.016;2022-10-18T14:56:52;15.40;99.90
29713;DHT22;16623;53.632;10.016;2022-10-18T14:59:22;15.30;99.90
29713;DHT22;16623;53.632;10.016;2022-10-18T15:02:05;15.40;99.90
29713;DHT22;16623;53.632;10.016;2022-10-18T15:04:34;15.40;99.90
29713;DHT22;16623;53.632;10.016;2022-10-18T15:07:05;15.40;99.90
29713;DHT22;16623;53.632;10.016;2022-10-18T15:09:34;15.50;99.90
29713;DHT22;16623;53.632;10.016;2022-10-18T15:12:02;15.30;99.90
29713;DHT22;16623;53.632;10.016;2022-10-18T15:14:30;15.30;99.90
29713;DHT22;16623;53.632;10.016;2022-10-18T15:17:07;15.30;99.90
29713;DHT22;16623;53.632;10.016;2022-10-18T15:19:37;15.30;99.90
29713;DHT22;16623;53.632;10.016;2022-10-18T15:22:09;15.20;99.90
29713;DHT22;16623;53.632;10.016;2022-10-18T15:24:38;15.20;99.90
29713;DHT22;16623;53.632;10.016;2022-10-18T15:29:43;15.30;99.90
29713;DHT22;16623;53.632;10.016;2022-10-18T15:32:25;15.20;99.90
29713;DHT22;16623;53.632;10.016;2022-10-18T15:34:52;15.20;99.90
29713;DHT22;16623;53.632;10.016;2022-10-18T15:37:30;15.20;99.90
29713;DHT22;16623;53.632;10.016;2022-10-18T15:40:34;15.20;99.90
29713;DHT22;16623;53.632;10.016;2022-10-18T15:43:31;15.10;99.90
29713;DHT22;16623;53.632;10.016;2022-10-18T15:45:53;15.10;99.90
29713;DHT22;16623;53.632;10.016;2022-10-18T15:48:29;15.10;99.90
29713;DHT22;16623;53.632;10.016;2022-10-18T15:50:57;15.10;99.90
29713;DHT22;16623;53.632;10.016;2022-10-18T15:53:40;15.00;99.90
29713;DHT22;16623;53.632;10.016;2022-10-18T15:56:11;15.00;99.90
29713;DHT22;16623;53.632;10.016;2022-10-18T15:58:45;15.00;99.90
29713;DHT22;16623;53.632;10.016;2022-10-18T16:01:19;15.00;99.90
29713;DHT22;16623;53.632;10.016;2022-10-18T16:03:46;15.00;99.90
29713;DHT22;16623;53.632;10.016;2022-10-18T16:06:13;15.00;99.90
29713;DHT22;16623;53.632;10.016;2022-10-18T16:08:41;15.00;99.90
29713;DHT22;16623;53.632;10.016;2022-10-18T16:11:19;14.90;99.90
29713;DHT22;16623;53.632;10.016;2022-10-18T16:13:46;14.90;99.90
29713;DHT22;16623;53.632;10.016;2022-10-18T16:16:21;14.80;99.90
29713;DHT22;16623;53.632;10.016;2022-10-18T16:18:47;14.70;99.90
29713;DHT22;16623;53.632;10.016;2022-10-18T16:21:39;14.70;99.90
29713;DHT22;16623;53.632;10.016;2022-10-18T16:24:05;14.70;99.90
29713;DHT22;16623;53.632;10.016;2022-10-18T16:26:31;14.60;99.90
29713;DHT22;16623;53.632;10.016;2022-10-18T16:28:57;14.60;99.90
29713;DHT22;16623;53.632;10.016;2022-10-18T16:31:29;14.50;99.90
29713;DHT22;16623;53.632;10.016;2022-10-18T16:33:55;14.50;99.90
29713;DHT22;16623;53.632;10.016;2022-10-18T16:36:24;14.50;99.90
29713;DHT22;16623;53.632;10.016;2022-10-18T16:38:51;14.50;99.90
29713;DHT22;16623;53.632;10.016;2022-10-18T16:41:19;14.40;99.90
29713;DHT22;16623;53.632;10.016;2022-10-18T16:43:46;14.40;99.90
29713;DHT22;16623;53.632;10.016;2022-10-18T16:46:18;14.40;99.90
29713;DHT22;16623;53.632;10.016;2022-10-18T16:48:45;14.50;99.90
29713;DHT22;16623;53.632;10.016;2022-10-18T16:51:11;14.50;99.90
29713;DHT22;16623;53.632;10.016;2022-10-18T16:53:37;14.50;99.90
29713;DHT22;16623;53.632;10.016;2022-10-18T16:56:04;14.50;99.90
29713;DHT22;16623;53.632;10.016;2022-10-18T16:58:31;14.50;99.90
29713;DHT22;16623;53.632;10.016;2022-10-18T17:00:58;14.50;99.90
29713;DHT22;16623;53.632;10.016;2022-10-18T17:03:24;14.50;99.90
29713;DHT22;16623;53.632;10.016;2022-10-18T17:05:50;14.40;99.90
29713;DHT22;16623;53.632;10.016;2022-10-18T17:08:20;14.40;99.90
29713;DHT22;16623;53.632;10.016;2022-10-18T17:10:47;14.40;99.90
29713;DHT22;16623;53.632;10.016;2022-10-18T17:13:14;14.40;99.90
29713;DHT22;16623;53.632;10.016;2022-10-18T17:15:40;14.50;99.90
29713;DHT22;16623;53.632;10.016;2022-10-18T17:18:10;14.40;99.90
29713;DHT22;16623;53.632;10.016;2022-10-18T17:20:36;14.40;99.90
29713;DHT22;16623;53.632;10.016;2022-10-18T17:23:04;14.40;99.90
29713;DHT22;16623;53.632;10.016;2022-10-18T17:25:30;14.40;99.90
29713;DHT22;16623;53.632;10.016;2022-10-18T17:27:56;14.40;99.90
29713;DHT22;16623;53.632;10.016;2022-10-18T17:30:21;14.40;99.90
29713;DHT22;16623;53.632;10.016;2022-10-18T17:32:47;14.40;99.90
29713;DHT22;16623;53.632;10.016;2022-10-18T17:35:12;14.40;99.90
29713;DHT22;16623;53.632;10.016;2022-10-18T17:37:38;14.40;99.90
29713;DHT22;16623;53.632;10.016;2022-10-18T17:40:05;14.40;99.90
29713;DHT22;16623;53.632;10.016;2022-10-18T17:42:31;14.40;99.90
29713;DHT22;16623;53.632;10.016;2022-10-18T17:44:57;14.40;99.90
29713;DHT22;16623;53.632;10.016;2022-10-18T17:47:22;14.40;99.90
29713;DHT22;16623;53.632;10.016;2022-10-18T17:49:48;14.40;99.90
29713;DHT22;16623;53.632;10.016;2022-10-18T17:52:13;14.40;99.90
29713;DHT22;16623;53.632;10.016;2022-10-18T17:54:39;14.50;99.90
29713;DHT22;16623;53.632;10.016;2022-10-18T17:57:05;14.50;99.90
29713;DHT22;16623;53.632;10.016;2022-10-18T17:59:30;14.50;99.90
29713;DHT22;16623;53.632;10.016;2022-10-18T18:01:56;14.50;99.90
29713;DHT22;16623;53.632;10.016;2022-10-18T18:04:21;14.50;99.90
29713;DHT22;16623;53.632;10.016;2022-10-18T18:06:48;14.50;99.90
29713;DHT22;16623;53.632;10.016;2022-10-18T18:09:15;14.50;99.90
29713;DHT22;16623;53.632;10.016;2022-10-18T18:11:42;14.50;99.90
29713;DHT22;16623;53.632;10.016;2022-10-18T18:14:10;14.50;99.90
29713;DHT22;16623;53.632;10.016;2022-10-18T18:16:41;14.50;99.90
29713;DHT22;16623;53.632;10.016;2022-10-18T18:19:08;14.50;99.90
29713;DHT22;16623;53.632;10.016;2022-10-18T18:21:34;14.50;99.90
29713;DHT22;16623;53.632;10.016;2022-10-18T18:23:59;14.50;99.90
29713;DHT22;16623;53.632;10.016;2022-10-18T18:26:25;14.40;99.90
29713;DHT22;16623;53.632;10.016;2022-10-18T18:28:52;14.40;99.90
29713;DHT22;16623;53.632;10.016;2022-10-18T18:31:22;14.40;99.90
29713;DHT22;16623;53.632;10.016;2022-10-18T18:33:54;14.40;99.90
29713;DHT22;16623;53.632;10.016;2022-10-18T18:36:20;14.40;99.90
29713;DHT22;16623;53.632;10.016;2022-10-18T18:38:47;14.40;99.90
29713;DHT22;16623;53.632;10.016;2022-10-18T18:41:15;14.40;99.90
29713;DHT22;16623;53.632;10.016;2022-10-18T18:43:43;14.30;99.90
29713;DHT22;16623;53.632;10.016;2022-10-18T18:46:09;14.30;99.90
29713;DHT22;16623;53.632;10.016;2022-10-18T18:48:37;14.30;99.90
29713;DHT22;16623;53.632;10.016;2022-10-18T18:51:05;14.40;99.90
29713;DHT22;16623;53.632;10.016;2022-10-18T18:53:32;14.30;99.90
29713;DHT22;16623;53.632;10.016;2022-10-18T18:56:06;14.30;99.90
29713;DHT22;16623;53.632;10.016;2022-10-18T18:58:34;14.30;99.90
29713;DHT22;16623;53.632;10.016;2022-10-18T19:01:08;14.30;99.90
29713;DHT22;16623;53.632;10.016;2022-10-18T19:03:34;14.30;99.90
29713;DHT22;16623;53.632;10.016;2022-10-18T19:06:27;14.20;99.90
29713;DHT22;16623;53.632;10.016;2022-10-18T19:08:54;14.20;99.90
29713;DHT22;16623;53.632;10.016;2022-10-18T19:11:26;14.20;99.90
29713;DHT22;16623;53.632;10.016;2022-10-18T19:13:52;14.10;99.90
29713;DHT22;16623;53.632;10.016;2022-10-18T19:16:38;14.10;99.90
29713;DHT22;16623;53.632;10.016;2022-10-18T19:19:19;14.10;99.90
29713;DHT22;16623;53.632;10.016;2022-10-18T19:21:54;14.00;99.90
29713;DHT22;16623;53.632;10.016;2022-10-18T19:24:20;14.10;99.90
29713;DHT22;16623;53.632;10.016;2022-10-18T19:26:49;14.10;99.90
29713;DHT22;16623;53.632;10.016;2022-10-18T19:29:20;14.00;99.90
29713;DHT22;16623;53.632;10.016;2022-10-18T19:31:48;14.00;99.90
29713;DHT22;16623;53.632;10.016;2022-10-18T19:34:15;14.10;99.90
29713;DHT22;16623;53.632;10.016;2022-10-18T19:36:43;14.10;99.90
29713;DHT22;16623;53.632;10.016;2022-10-18T19:39:17;14.00;99.90
29713;DHT22;16623;53.632;10.016;2022-10-18T19:41:47;14.00;99.90
29713;DHT22;16623;53.632;10.016;2022-10-18T19:44:18;14.00;99.90
29713;DHT22;16623;53.632;10.016;2022-10-18T19:46:44;14.00;99.90
29713;DHT22;16623;53.632;10.016;2022-10-18T19:49:10;14.00;99.90
29713;DHT22;16623;53.632;10.016;2022-10-18T19:51:36;14.10;99.90
29713;DHT22;16623;53.632;10.016;2022-10-18T19:54:02;14.00;99.90
29713;DHT22;16623;53.632;10.016;2022-10-18T19:56:28;14.10;99.90
29713;DHT22;16623;53.632;10.016;2022-10-18T19:58:56;14.00;99.90
29713;DHT22;16623;53.632;10.016;2022-10-18T20:01:22;13.90;99.90
29713;DHT22;16623;53.632;10.016;2022-10-18T20:03:48;13.90;99.90
29713;DHT22;16623;53.632;10.016;2022-10-18T20:06:14;13.90;99.90
29713;DHT22;16623;53.632;10.016;2022-10-18T20:08:40;13.80;99.90
29713;DHT22;16623;53.632;10.016;2022-10-18T20:11:17;13.80;99.90
29713;DHT22;16623;53.632;10.016;2022-10-18T20:13:43;13.80;99.90
29713;DHT22;16623;53.632;10.016;2022-10-18T20:16:10;13.80;99.90
29713;DHT22;16623;53.632;10.016;2022-10-18T20:18:36;13.80;99.90
29713;DHT22;16623;53.632;10.016;2022-10-18T20:21:06;13.80;99.90
29713;DHT22;16623;53.632;10.016;2022-10-18T20:23:34;13.80;99.90
29713;DHT22;16623;53.632;10.016;2022-10-18T20:26:02;13.70;99.90
29713;DHT22;16623;53.632;10.016;2022-10-18T20:28:29;13.70;99.90
29713;DHT22;16623;53.632;10.016;2022-10-18T20:31:12;13.70;99.90
29713;DHT22;16623;53.632;10.016;2022-10-18T20:33:38;13.70;99.90
29713;DHT22;16623;53.632;10.016;2022-10-18T20:36:12;13.70;99.90
29713;DHT22;16623;53.632;10.016;2022-10-18T20:38:40;13.70;99.90
29713;DHT22;16623;53.632;10.016;2022-10-18T20:41:17;13.80;99.90
29713;DHT22;16623;53.632;10.016;2022-10-18T20:43:43;13.70;99.90
29713;DHT22;16623;53.632;10.016;2022-10-18T20:46:09;13.70;99.90
29713;DHT22;16623;53.632;10.016;2022-10-18T20:48:36;13.70;99.90
29713;DHT22;16623;53.632;10.016;2022-10-18T20:51:09;13.60;99.90
29713;DHT22;16623;53.632;10.016;2022-10-18T20:53:37;13.60;99.90
29713;DHT22;16623;53.632;10.016;2022-10-18T20:56:11;13.50;99.90
29713;DHT22;16623;53.632;10.016;2022-10-18T20:58:38;13.40;99.90
29713;DHT22;16623;53.632;10.016;2022-10-18T21:01:06;13.40;99.90
29713;DHT22;16623;53.632;10.016;2022-10-18T21:03:35;13.30;99.90
29713;DHT22;16623;53.632;10.016;2022-10-18T21:06:16;13.20;99.90
29713;DHT22;16623;53.632;10.016;2022-10-18T21:08:43;13.20;99.90
29713;DHT22;16623;53.632;10.016;2022-10-18T21:11:09;13.20;99.90
29713;DHT22;16623;53.632;10.016;2022-10-18T21:13:35;13.10;99.90
29713;DHT22;16623;53.632;10.016;2022-10-18T21:16:04;13.00;99.90
29713;DHT22;16623;53.632;10.016;2022-10-18T21:18:32;13.00;99.90
29713;DHT22;16623;53.632;10.016;2022-10-18T21:21:14;13.00;99.90
29713;DHT22;16623;53.632;10.016;2022-10-18T21:23:41;13.00;99.90
29713;DHT22;16623;53.632;10.016;2022-10-18T21:26:07;13.00;99.90
29713;DHT22;16623;53.632;10.016;2022-10-18T21:28:33;13.10;99.90
29713;DHT22;16623;53.632;10.016;2022-10-18T21:31:16;13.10;99.90
29713;DHT22;16623;53.632;10.016;2022-10-18T21:33:43;13.00;99.90
29713;DHT22;16623;53.632;10.016;2022-10-18T21:36:10;13.00;99.90
29713;DHT22;16623;53.632;10.016;2022-10-18T21:38:36;13.00;99.90
29713;DHT22;16623;53.632;10.016;2022-10-18T21:41:10;13.00;99.90
29713;DHT22;16623;53.632;10.016;2022-10-18T21:43:44;13.00;99.90
29713;DHT22;16623;53.632;10.016;2022-10-18T21:46:11;13.00;99.90
29713;DHT22;16623;53.632;10.016;2022-10-18T21:48:37;13.00;99.90
29713;DHT22;16623;53.632;10.016;2022-10-18T21:51:06;13.00;99.90
29713;DHT22;16623;53.632;10.016;2022-10-18T21:53:33;13.00;99.90
29713;DHT22;16623;53.632;10.016;2022-10-18T21:56:05;13.80;99.90
29713;DHT22;16623;53.632;10.016;2022-10-18T21:58:35;13.00;99.90
29713;DHT22;16623;53.632;10.016;2022-10-18T22:01:09;13.10;99.90
29713;DHT22;16623;53.632;10.016;2022-10-18T22:03:35;13.00;99.90
29713;DHT22;16623;53.632;10.016;2022-10-18T22:06:04;13.00;99.90
29713;DHT22;16623;53.632;10.016;2022-10-18T22:08:31;13.00;99.90
29713;DHT22;16623;53.632;10.016;2022-10-18T22:10:57;13.00;99.90
29713;DHT22;16623;53.632;10.016;2022-10-18T22:13:23;13.00;99.90
29713;DHT22;16623;53.632;10.016;2022-10-18T22:15:49;13.10;99.90
29713;DHT22;16623;53.632;10.016;2022-10-18T22:18:14;13.00;99.90
29713;DHT22;16623;53.632;10.016;2022-10-18T22:20:40;13.00;99.90
29713;DHT22;16623;53.632;10.016;2022-10-18T22:23:05;12.90;99.90
29713;DHT22;16623;53.632;10.016;2022-10-18T22:25:34;12.80;99.90
29713;DHT22;16623;53.632;10.016;2022-10-18T22:28:00;12.80;99.90
29713;DHT22;16623;53.632;10.016;2022-10-18T22:30:26;12.70;99.90
29713;DHT22;16623;53.632;10.016;2022-10-18T22:32:51;12.70;99.90
29713;DHT22;16623;53.632;10.016;2022-10-18T22:35:17;12.70;99.90
29713;DHT22;16623;53.632;10.016;2022-10-18T22:37:42;12.70;99.90
29713;DHT22;16623;53.632;10.016;2022-10-18T22:40:08;12.60;99.90
29713;DHT22;16623;53.632;10.016;2022-10-18T22:42:34;12.60;99.90
29713;DHT22;16623;53.632;10.016;2022-10-18T22:44:59;12.60;99.90
29713;DHT22;16623;53.632;10.016;2022-10-18T22:47:25;12.60;99.90
29713;DHT22;16623;53.632;10.016;2022-10-18T22:49:51;12.50;99.90
29713;DHT22;16623;53.632;10.016;2022-10-18T22:52:16;12.50;99.90
29713;DHT22;16623;53.632;10.016;2022-10-18T22:54:42;12.50;99.90
29713;DHT22;16623;53.632;10.016;2022-10-18T22:57:07;12.50;99.90
29713;DHT22;16623;53.632;10.016;2022-10-18T22:59:33;12.50;99.90
29713;DHT22;16623;53.632;10.016;2022-10-18T23:01:58;12.50;99.90
29713;DHT22;16623;53.632;10.016;2022-10-18T23:04:25;12.50;99.90
29713;DHT22;16623;53.632;10.016;2022-10-18T23:06:50;12.50;99.90
29713;DHT22;16623;53.632;10.016;2022-10-18T23:09:16;12.50;99.90
29713;DHT22;16623;53.632;10.016;2022-10-18T23:11:41;12.40;99.90
29713;DHT22;16623;53.632;10.016;2022-10-18T23:14:07;12.40;99.90
29713;DHT22;16623;53.632;10.016;2022-10-18T23:16:33;12.30;99.90
29713;DHT22;16623;53.632;10.016;2022-10-18T23:18:58;12.30;99.90
29713;DHT22;16623;53.632;10.016;2022-10-18T23:21:25;12.30;99.90
29713;DHT22;16623;53.632;10.016;2022-10-18T23:23:52;12.30;99.90
29713;DHT22;16623;53.632;10.016;2022-10-18T23:26:20;12.30;99.90
29713;DHT22;16623;53.632;10.016;2022-10-18T23:28:47;12.30;99.90
29713;DHT22;16623;53.632;10.016;2022-10-18T23:31:16;12.30;99.90
29713;DHT22;16623;53.632;10.016;2022-10-18T23:33:47;12.30;99.90
29713;DHT22;16623;53.632;10.016;2022-10-18T23:36:13;12.30;99.90
29713;DHT22;16623;53.632;10.016;2022-10-18T23:38:39;12.30;99.90
29713;DHT22;16623;53.632;10.016;2022-10-18T23:41:07;12.30;99.90
29713;DHT22;16623;53.632;10.016;2022-10-18T23:43:32;12.30;99.90
29713;DHT22;16623;53.632;10.016;2022-10-18T23:45:58;12.30;99.90
29713;DHT22;16623;53.632;10.016;2022-10-18T23:48:24;12.20;99.90
29713;DHT22;16623;53.632;10.016;2022-10-18T23:50:50;12.20;99.90
29713;DHT22;16623;53.632;10.016;2022-10-18T23:53:16;12.20;99.90
29713;DHT22;16623;53.632;10.016;2022-10-18T23:58:19;12.20;99.90
